createdAt,value
2022-07-27T00:01:13.237Z,7.53
2022-07-27T00:03:41.734Z,7.20
2022-07-27T00:06:09.499Z,7.65
2022-07-27T00:08:37.128Z,7.47
2022-07-27T00:11:05.098Z,8.07
2022-07-27T00:13:32.703Z,6.93
2022-07-27T00:16:00.372Z,7.03
2022-07-27T00:18:28.223Z,6.68
2022-07-27T00:20:55.952Z,5.37
2022-07-27T00:23:23.421Z,5.93
2022-07-27T00:25:51.359Z,6.90
2022-07-27T00:28:18.927Z,6.60
2022-07-27T00:30:46.792Z,6.28
2022-07-27T00:33:17.264Z,6.20
2022-07-27T00:35:45.999Z,5.37
2022-07-27T00:38:14.212Z,5.45
2022-07-27T00:40:41.845Z,6.60
2022-07-27T00:43:09.391Z,6.35
2022-07-27T00:45:37.172Z,6.32
2022-07-27T00:48:05.216Z,6.05
2022-07-27T00:50:32.913Z,6.12
2022-07-27T00:53:00.733Z,5.68
2022-07-27T00:55:28.486Z,6.32
2022-07-27T00:57:58.796Z,5.75
2022-07-27T01:00:28.356Z,5.62
2022-07-27T01:02:57.318Z,4.90
2022-07-27T01:05:36.148Z,5.37
2022-07-27T01:08:06.700Z,5.53
2022-07-27T01:10:34.761Z,5.80
2022-07-27T01:13:02.739Z,4.72
2022-07-27T01:15:31.074Z,4.55
2022-07-27T01:18:03.042Z,4.45
2022-07-27T01:20:31.001Z,5.12
2022-07-27T01:22:58.471Z,5.68
2022-07-27T01:25:26.284Z,5.65
2022-07-27T01:27:54.137Z,4.72
2022-07-27T01:30:27.725Z,5.65
2022-07-27T01:33:03.204Z,5.55
2022-07-27T01:35:31.188Z,5.10
2022-07-27T01:37:59.080Z,5.55
2022-07-27T01:40:27.034Z,5.72
2022-07-27T01:42:54.731Z,5.65
2022-07-27T01:45:22.637Z,6.20
2022-07-27T01:47:50.089Z,6.53
2022-07-27T01:50:17.551Z,6.50
2022-07-27T01:52:45.326Z,6.12
2022-07-27T01:55:12.936Z,6.03
2022-07-27T01:57:40.686Z,5.55
2022-07-27T02:00:13.772Z,6.80
2022-07-27T02:02:42.038Z,6.90
2022-07-27T02:05:12.646Z,6.62
2022-07-27T02:07:41.030Z,6.10
2022-07-27T02:10:10.037Z,5.25
2022-07-27T02:12:38.097Z,6.90
2022-07-27T02:15:19.661Z,5.80
2022-07-27T02:17:49.246Z,7.07
2022-07-27T02:20:19.771Z,6.60
2022-07-27T02:22:47.612Z,6.50
2022-07-27T02:25:17.326Z,6.75
2022-07-27T02:27:45.285Z,4.30
2022-07-27T02:30:13.654Z,5.65
2022-07-27T02:32:44.131Z,6.37
2022-07-27T02:35:18.703Z,6.30
2022-07-27T02:37:48.640Z,5.57
2022-07-27T02:40:17.600Z,6.18
2022-07-27T02:42:46.311Z,7.10
2022-07-27T02:45:17.183Z,6.55
2022-07-27T02:47:45.043Z,5.78
2022-07-27T02:50:12.846Z,5.85
2022-07-27T02:52:40.629Z,4.97
2022-07-27T02:55:09.065Z,5.70
2022-07-27T02:57:38.045Z,6.05
2022-07-27T03:00:13.620Z,5.30
2022-07-27T03:02:41.339Z,5.82
2022-07-27T03:05:10.743Z,6.22
2022-07-27T03:07:38.308Z,5.82
2022-07-27T03:10:06.583Z,5.45
2022-07-27T03:12:34.477Z,5.43
2022-07-27T03:15:01.942Z,5.65
2022-07-27T03:17:29.514Z,5.82
2022-07-27T03:19:57.307Z,5.50
2022-07-27T03:22:24.730Z,5.37
2022-07-27T03:24:52.199Z,5.37
2022-07-27T03:27:20.034Z,4.70
2022-07-27T03:29:47.536Z,5.18
2022-07-27T03:32:15.030Z,4.62
2022-07-27T03:34:42.800Z,5.60
2022-07-27T03:37:10.385Z,5.25
2022-07-27T03:39:37.961Z,5.18
2022-07-27T03:42:05.957Z,5.07
2022-07-27T03:44:33.519Z,3.95
2022-07-27T03:47:01.097Z,5.12
2022-07-27T03:49:28.922Z,5.20
2022-07-27T03:51:56.452Z,5.43
2022-07-27T03:54:23.952Z,4.80
2022-07-27T03:56:51.761Z,5.90
2022-07-27T03:59:19.258Z,5.50
2022-07-27T04:01:47.204Z,5.68
2022-07-27T04:04:15.226Z,5.62
2022-07-27T04:06:42.939Z,5.90
2022-07-27T04:09:10.455Z,5.43
2022-07-27T04:11:43.605Z,5.47
2022-07-27T04:14:12.954Z,5.28
2022-07-27T04:16:41.452Z,4.85
2022-07-27T04:19:09.473Z,5.28
2022-07-27T04:21:38.003Z,4.70
2022-07-27T04:24:07.108Z,4.97
2022-07-27T04:26:34.610Z,5.30
2022-07-27T04:29:02.125Z,5.40
2022-07-27T04:31:29.861Z,5.22
2022-07-27T04:33:57.591Z,5.53
2022-07-27T04:36:25.019Z,4.80
2022-07-27T04:38:52.765Z,5.50
2022-07-27T04:41:20.235Z,5.10
2022-07-27T04:43:47.710Z,4.85
2022-07-27T04:46:15.834Z,5.75
2022-07-27T04:48:48.818Z,5.57
2022-07-27T04:51:18.188Z,5.07
2022-07-27T04:53:53.539Z,4.93
2022-07-27T04:56:27.151Z,5.25
2022-07-27T04:58:57.741Z,5.53
2022-07-27T05:01:26.669Z,5.22
2022-07-27T05:03:56.252Z,4.45
2022-07-27T05:06:23.784Z,5.30
2022-07-27T05:08:51.339Z,5.05
2022-07-27T05:11:19.141Z,5.03
2022-07-27T05:13:46.622Z,4.90
2022-07-27T05:16:14.215Z,4.78
2022-07-27T05:18:42.277Z,4.93
2022-07-27T05:21:09.811Z,5.05
2022-07-27T05:23:37.345Z,5.78
2022-07-27T05:26:05.191Z,5.07
2022-07-27T05:28:32.676Z,5.25
2022-07-27T05:31:00.239Z,5.25
2022-07-27T05:33:28.243Z,5.00
2022-07-27T05:35:56.494Z,5.12
2022-07-27T05:38:24.040Z,5.10
2022-07-27T05:40:53.359Z,5.40
2022-07-27T05:43:20.970Z,5.15
2022-07-27T05:45:48.608Z,5.05
2022-07-27T05:48:16.454Z,5.25
2022-07-27T05:50:44.045Z,5.28
2022-07-27T05:53:11.567Z,5.07
2022-07-27T05:55:39.396Z,5.00
2022-07-27T05:58:26.063Z,4.95
2022-07-27T06:00:54.355Z,4.80
2022-07-27T06:03:22.905Z,4.82
2022-07-27T06:05:50.472Z,4.87
2022-07-27T06:08:18.025Z,4.45
2022-07-27T06:10:45.874Z,4.37
2022-07-27T06:13:13.972Z,4.80
2022-07-27T06:15:41.505Z,4.57
2022-07-27T06:18:16.801Z,4.32
2022-07-27T06:20:45.755Z,4.25
2022-07-27T06:23:13.672Z,4.40
2022-07-27T06:25:41.140Z,4.18
2022-07-27T06:28:09.354Z,4.68
2022-07-27T06:30:37.110Z,4.93
2022-07-27T06:33:06.172Z,4.03
2022-07-27T06:35:34.512Z,4.95
2022-07-27T06:38:05.848Z,4.20
2022-07-27T06:40:33.458Z,4.40
2022-07-27T06:43:01.054Z,3.87
2022-07-27T06:45:28.997Z,3.95
2022-07-27T06:47:56.499Z,4.20
2022-07-27T06:50:24.232Z,4.10
2022-07-27T06:52:52.163Z,3.92
2022-07-27T06:55:19.654Z,3.58
2022-07-27T06:57:47.391Z,3.40
2022-07-27T07:00:15.469Z,3.70
2022-07-27T07:02:56.400Z,3.30
2022-07-27T07:05:27.347Z,4.00
2022-07-27T07:07:55.518Z,3.17
2022-07-27T07:10:24.743Z,3.60
2022-07-27T07:12:56.059Z,2.87
2022-07-27T07:15:25.152Z,2.87
2022-07-27T07:17:54.344Z,3.00
2022-07-27T07:20:22.224Z,2.72
2022-07-27T07:22:50.386Z,3.22
2022-07-27T07:25:18.159Z,2.85
2022-07-27T07:27:45.656Z,2.65
2022-07-27T07:30:13.330Z,3.65
2022-07-27T07:32:41.130Z,3.12
2022-07-27T07:35:09.297Z,2.55
2022-07-27T07:37:36.789Z,2.97
2022-07-27T07:40:40.041Z,2.50
2022-07-27T07:42:56.498Z,2.40
2022-07-27T07:45:24.900Z,2.95
2022-07-27T07:47:52.952Z,2.65
2022-07-27T07:50:21.422Z,3.00
2022-07-27T07:52:50.893Z,2.92
2022-07-27T07:55:23.329Z,2.42
2022-07-27T07:57:51.193Z,3.40
2022-07-27T08:00:20.929Z,4.22
2022-07-27T08:02:49.747Z,4.50
2022-07-27T08:05:17.628Z,3.85
2022-07-27T08:07:45.946Z,3.12
2022-07-27T08:10:15.155Z,3.80
2022-07-27T08:12:45.043Z,4.12
2022-07-27T08:15:13.765Z,5.60
2022-07-27T08:17:42.625Z,4.75
2022-07-27T08:20:11.233Z,5.87
2022-07-27T08:22:39.026Z,4.75
2022-07-27T08:25:08.323Z,4.97
2022-07-27T08:27:40.681Z,6.75
2022-07-27T08:30:10.648Z,9.80
2022-07-27T08:32:55.168Z,7.28
2022-07-27T08:35:23.123Z,10.32
2022-07-27T08:37:52.692Z,8.25
2022-07-27T08:40:41.853Z,8.68
2022-07-27T08:43:13.253Z,9.80
2022-07-27T08:45:41.869Z,14.73
2022-07-27T08:48:14.004Z,18.83
2022-07-27T08:50:42.726Z,16.60
2022-07-27T08:53:13.172Z,13.65
2022-07-27T08:55:42.545Z,10.50
2022-07-27T08:58:12.306Z,11.50
2022-07-27T09:00:45.400Z,10.45
2022-07-27T09:03:19.026Z,9.85
2022-07-27T09:05:53.267Z,8.40
2022-07-27T09:08:28.843Z,7.30
2022-07-27T09:10:59.580Z,7.70
2022-07-27T09:13:34.784Z,6.15
2022-07-27T09:16:23.517Z,5.22
2022-07-27T09:19:00.754Z,6.30
2022-07-27T09:21:28.608Z,6.60
2022-07-27T09:24:29.781Z,7.53
2022-07-27T09:27:04.857Z,6.83
2022-07-27T09:29:37.136Z,6.35
2022-07-27T09:32:15.849Z,7.20
2022-07-27T09:34:44.142Z,6.45
2022-07-27T09:37:12.490Z,5.68
2022-07-27T09:39:40.151Z,5.80
2022-07-27T09:42:47.860Z,5.80
2022-07-27T09:45:04.185Z,6.40
2022-07-27T09:47:32.052Z,6.10
2022-07-27T09:50:20.829Z,6.15
2022-07-27T09:52:48.632Z,5.90
2022-07-27T09:55:19.981Z,5.30
2022-07-27T09:57:56.416Z,5.82
2022-07-27T10:00:25.796Z,5.57
2022-07-27T10:02:54.136Z,5.50
2022-07-27T10:05:22.981Z,5.70
2022-07-27T10:07:52.562Z,5.37
2022-07-27T10:10:20.922Z,5.55
2022-07-27T10:12:54.041Z,5.10
2022-07-27T10:15:24.079Z,4.85
2022-07-27T10:17:59.165Z,4.97
2022-07-27T10:20:27.389Z,5.15
2022-07-27T10:22:58.661Z,5.60
2022-07-27T10:25:32.518Z,7.43
2022-07-27T10:28:17.890Z,6.30
2022-07-27T10:30:48.316Z,6.93
2022-07-27T10:33:42.806Z,6.65
2022-07-27T10:36:19.665Z,6.03
2022-07-27T10:38:49.766Z,6.03
2022-07-27T10:41:40.898Z,4.50
2022-07-27T10:44:14.970Z,5.57
2022-07-27T10:46:46.708Z,5.32
2022-07-27T10:49:25.000Z,5.82
2022-07-27T10:51:53.299Z,5.32
2022-07-27T10:54:52.691Z,5.18
2022-07-27T10:57:26.945Z,5.25
2022-07-27T11:00:14.731Z,5.32
2022-07-27T11:02:42.720Z,4.85
2022-07-27T11:08:35.501Z,5.12
2022-07-27T11:10:50.489Z,5.10
2022-07-27T11:13:19.199Z,4.80
2022-07-27T11:16:22.841Z,5.05
2022-07-27T11:18:54.966Z,4.87
2022-07-27T11:21:28.805Z,5.10
2022-07-27T11:24:05.959Z,5.75
2022-07-27T11:26:39.511Z,5.18
2022-07-27T11:29:09.371Z,5.10
2022-07-27T11:31:54.694Z,4.25
2022-07-27T11:34:35.809Z,5.57
2022-07-27T11:37:13.806Z,4.85
2022-07-27T11:39:59.747Z,5.10
2022-07-27T11:42:38.424Z,4.80
2022-07-27T11:45:07.546Z,4.95
2022-07-27T11:47:36.059Z,5.10
2022-07-27T11:50:08.284Z,4.90
2022-07-27T11:52:36.131Z,4.68
2022-07-27T11:55:03.942Z,4.35
2022-07-27T11:57:33.032Z,4.95
2022-07-27T12:00:02.209Z,4.80
2022-07-27T12:02:51.325Z,4.80
2022-07-27T12:05:19.338Z,5.75
2022-07-27T12:07:47.411Z,5.28
2022-07-27T12:10:14.900Z,5.12
2022-07-27T12:12:49.232Z,4.53
2022-07-27T12:18:06.732Z,5.20
2022-07-27T12:20:35.553Z,4.95
2022-07-27T12:23:07.825Z,5.07
2022-07-27T12:25:36.375Z,4.85
2022-07-27T12:28:13.521Z,4.82
2022-07-27T12:30:49.432Z,5.05
2022-07-27T12:33:35.623Z,4.50
2022-07-27T12:36:05.772Z,4.30
2022-07-27T12:38:51.501Z,3.83
2022-07-27T12:41:26.647Z,4.00
2022-07-27T12:44:09.285Z,3.70
2022-07-27T12:46:56.398Z,4.47
2022-07-27T12:49:34.371Z,4.10
2022-07-27T12:52:07.017Z,4.47
2022-07-27T12:54:34.755Z,4.93
2022-07-27T12:57:02.767Z,5.12
2022-07-27T12:59:30.336Z,4.15
2022-07-27T13:01:57.965Z,4.40
2022-07-27T13:04:26.137Z,4.30
2022-07-27T13:06:53.773Z,4.70
2022-07-27T13:09:21.302Z,4.10
2022-07-27T13:11:49.118Z,4.50
2022-07-27T13:14:16.596Z,4.20
2022-07-27T13:16:44.247Z,4.93
2022-07-27T13:19:15.349Z,4.43
2022-07-27T13:21:43.359Z,4.20
2022-07-27T13:24:11.493Z,4.03
2022-07-27T13:26:40.821Z,4.05
2022-07-27T13:29:08.332Z,3.80
2022-07-27T13:31:37.116Z,3.70
2022-07-27T13:34:05.026Z,3.78
2022-07-27T13:36:32.494Z,3.60
2022-07-27T13:38:59.994Z,3.75
2022-07-27T13:41:27.880Z,4.00
2022-07-27T13:43:55.366Z,3.00
2022-07-27T13:46:22.912Z,3.45
2022-07-27T13:48:50.800Z,3.60
2022-07-27T13:51:18.345Z,3.45
2022-07-27T13:53:46.842Z,3.30
2022-07-27T13:56:14.665Z,3.08
2022-07-27T13:58:42.671Z,3.05
2022-07-27T14:01:11.368Z,2.85
2022-07-27T14:03:39.612Z,2.87
2022-07-27T14:06:07.206Z,2.87
2022-07-27T14:08:36.615Z,2.80
2022-07-27T14:11:05.202Z,2.90
2022-07-27T14:13:32.847Z,2.80
2022-07-27T14:16:01.680Z,2.95
2022-07-27T14:18:30.935Z,2.92
2022-07-27T14:21:00.736Z,3.55
2022-07-27T14:23:28.875Z,3.70
2022-07-27T14:25:58.488Z,4.20
2022-07-27T14:28:27.754Z,3.95
2022-07-27T14:30:56.361Z,3.05
2022-07-27T14:33:25.852Z,3.00
2022-07-27T14:36:00.051Z,2.53
2022-07-27T14:38:30.884Z,2.60
2022-07-27T14:41:00.828Z,2.87
2022-07-27T14:43:29.823Z,2.83
2022-07-27T14:45:57.612Z,2.70
2022-07-27T14:48:37.118Z,3.05
2022-07-27T14:51:12.961Z,2.95
2022-07-27T14:53:40.515Z,2.60
2022-07-27T14:56:07.991Z,2.78
2022-07-27T14:58:35.819Z,2.70
2022-07-27T15:01:03.618Z,2.80
2022-07-27T15:03:31.255Z,2.65
2022-07-27T15:05:59.038Z,2.28
2022-07-27T15:08:26.603Z,2.90
2022-07-27T15:10:54.245Z,2.95
2022-07-27T15:13:22.019Z,2.58
2022-07-27T15:15:50.845Z,2.70
2022-07-27T15:18:21.030Z,2.53
2022-07-27T15:20:48.865Z,2.53
2022-07-27T15:23:16.787Z,2.17
2022-07-27T15:25:44.542Z,2.42
2022-07-27T15:28:12.863Z,2.20
2022-07-27T15:30:41.027Z,2.30
2022-07-27T15:33:08.679Z,2.30
2022-07-27T15:35:36.468Z,2.75
2022-07-27T15:38:04.015Z,2.15
2022-07-27T15:40:37.830Z,2.40
2022-07-27T15:43:06.951Z,2.40
2022-07-27T15:45:38.712Z,2.50
2022-07-27T15:48:08.563Z,1.73
2022-07-27T15:50:37.499Z,1.70
2022-07-27T15:53:06.081Z,1.90
2022-07-27T15:55:34.438Z,1.77
2022-07-27T15:58:01.945Z,2.28
2022-07-27T16:00:29.672Z,1.92
2022-07-27T16:02:57.562Z,2.17
2022-07-27T16:05:25.539Z,2.72
2022-07-27T16:07:53.049Z,1.90
2022-07-27T16:10:20.872Z,1.95
2022-07-27T16:12:48.778Z,1.98
2022-07-27T16:15:16.304Z,2.03
2022-07-27T16:17:45.617Z,2.12
2022-07-27T16:20:13.467Z,2.00
2022-07-27T16:22:41.063Z,1.87
2022-07-27T16:25:08.951Z,2.30
2022-07-27T16:27:36.449Z,2.20
2022-07-27T16:30:04.487Z,2.15
2022-07-27T16:32:32.385Z,2.05
2022-07-27T16:34:59.909Z,2.05
2022-07-27T16:37:27.473Z,2.60
2022-07-27T16:39:55.278Z,1.83
2022-07-27T16:42:22.824Z,1.80
2022-07-27T16:44:50.382Z,2.08
2022-07-27T16:47:18.169Z,1.60
2022-07-27T16:49:45.717Z,2.00
2022-07-27T16:52:13.555Z,2.17
2022-07-27T16:54:41.321Z,2.35
2022-07-27T16:57:10.626Z,2.00
2022-07-27T16:59:41.714Z,2.62
2022-07-27T17:02:09.654Z,2.10
2022-07-27T17:04:37.927Z,2.20
2022-07-27T17:07:06.212Z,2.28
2022-07-27T17:09:41.317Z,2.33
2022-07-27T17:12:09.146Z,2.30
2022-07-27T17:14:36.664Z,2.85
2022-07-27T17:17:04.545Z,3.20
2022-07-27T17:19:32.095Z,2.87
2022-07-27T17:21:59.746Z,2.42
2022-07-27T17:24:27.589Z,2.72
2022-07-27T17:26:55.158Z,2.70
2022-07-27T17:29:23.737Z,2.20
2022-07-27T17:31:51.829Z,2.30
2022-07-27T17:34:19.510Z,2.53
2022-07-27T17:36:47.220Z,2.58
2022-07-27T17:39:15.261Z,2.28
2022-07-27T17:41:43.626Z,2.22
2022-07-27T17:44:11.471Z,2.30
2022-07-27T17:46:39.365Z,2.10
2022-07-27T17:49:07.039Z,2.47
2022-07-27T17:51:37.116Z,2.28
2022-07-27T17:54:05.202Z,2.97
2022-07-27T17:56:32.714Z,1.95
2022-07-27T17:59:14.388Z,2.55
2022-07-27T18:01:48.697Z,2.45
2022-07-27T18:04:16.683Z,2.08
2022-07-27T18:06:44.318Z,2.17
2022-07-27T18:09:12.174Z,2.65
2022-07-27T18:11:40.493Z,2.17
2022-07-27T18:14:08.181Z,2.53
2022-07-27T18:16:40.362Z,1.85
2022-07-27T18:19:08.940Z,2.17
2022-07-27T18:21:36.570Z,2.10
2022-07-27T18:24:04.371Z,2.20
2022-07-27T18:26:32.170Z,2.20
2022-07-27T18:28:59.792Z,2.47
2022-07-27T18:31:27.648Z,2.17
2022-07-27T18:33:56.079Z,2.20
2022-07-27T18:36:23.703Z,2.00
2022-07-27T18:38:51.628Z,2.35
2022-07-27T18:41:19.479Z,2.37
2022-07-27T18:43:56.342Z,2.30
2022-07-27T18:46:24.243Z,2.37
2022-07-27T18:48:51.866Z,2.37
2022-07-27T18:51:19.449Z,2.53
2022-07-27T18:53:48.871Z,2.20
2022-07-27T18:56:16.489Z,2.33
2022-07-27T18:58:44.048Z,2.47
2022-07-27T19:01:11.932Z,2.92
2022-07-27T19:03:40.631Z,2.58
2022-07-27T19:06:11.341Z,2.65
2022-07-27T19:08:45.795Z,3.00
2022-07-27T19:11:13.397Z,2.80
2022-07-27T19:13:41.233Z,3.25
2022-07-27T19:16:09.630Z,2.97
2022-07-27T19:18:37.192Z,3.00
2022-07-27T19:21:04.720Z,3.10
2022-07-27T19:23:32.740Z,3.10
2022-07-27T19:26:00.658Z,3.45
2022-07-27T19:28:28.343Z,3.42
2022-07-27T19:30:56.176Z,3.55
2022-07-27T19:33:23.777Z,3.28
2022-07-27T19:35:52.592Z,3.20
2022-07-27T19:38:20.464Z,3.47
2022-07-27T19:40:48.357Z,3.78
2022-07-27T19:43:15.973Z,3.40
2022-07-27T19:45:43.884Z,3.22
2022-07-27T19:48:12.007Z,4.03
2022-07-27T19:50:39.925Z,3.55
2022-07-27T19:53:08.091Z,3.35
2022-07-27T19:55:36.148Z,3.50
2022-07-27T19:58:04.167Z,3.65
2022-07-27T20:00:32.380Z,3.70
2022-07-27T20:03:00.482Z,3.25
2022-07-27T20:05:28.196Z,3.75
2022-07-27T20:07:55.735Z,3.30
2022-07-27T20:10:25.354Z,3.42
2022-07-27T20:12:53.136Z,3.45
2022-07-27T20:15:22.317Z,3.62
2022-07-27T20:17:50.743Z,3.30
2022-07-27T20:20:18.390Z,3.50
2022-07-27T20:22:46.112Z,3.78
2022-07-27T20:25:14.962Z,3.80
2022-07-27T20:27:42.865Z,3.35
2022-07-27T20:30:11.762Z,3.25
2022-07-27T20:32:39.603Z,3.45
2022-07-27T20:35:07.397Z,3.42
2022-07-27T20:37:35.175Z,2.85
2022-07-27T20:40:05.335Z,3.30
2022-07-27T20:42:33.106Z,2.97
2022-07-27T20:45:00.694Z,2.60
2022-07-27T20:47:34.318Z,2.80
2022-07-27T20:50:02.340Z,3.40
2022-07-27T20:52:30.204Z,2.83
2022-07-27T20:54:57.876Z,2.60
2022-07-27T20:57:25.404Z,2.85
2022-07-27T20:59:53.280Z,2.90
2022-07-27T21:02:20.951Z,2.47
2022-07-27T21:04:48.598Z,2.28
2022-07-27T21:07:16.365Z,2.42
2022-07-27T21:09:43.875Z,2.58
2022-07-27T21:12:11.419Z,3.10
2022-07-27T21:14:39.238Z,2.33
2022-07-27T21:17:06.865Z,2.87
2022-07-27T21:19:34.616Z,2.40
2022-07-27T21:22:02.438Z,2.60
2022-07-27T21:24:29.985Z,2.40
2022-07-27T21:27:00.954Z,2.70
2022-07-27T21:29:32.420Z,2.35
2022-07-27T21:31:59.930Z,2.90
2022-07-27T21:34:27.582Z,2.33
2022-07-27T21:36:55.547Z,2.87
2022-07-27T21:39:24.104Z,2.35
2022-07-27T21:41:51.711Z,2.62
2022-07-27T21:44:19.457Z,2.60
2022-07-27T21:46:48.459Z,2.25
2022-07-27T21:49:16.065Z,2.00
2022-07-27T21:51:43.870Z,2.67
2022-07-27T21:54:11.710Z,2.20
2022-07-27T21:56:41.086Z,2.50
2022-07-27T21:59:10.253Z,2.33
2022-07-27T22:01:37.898Z,2.20
2022-07-27T22:04:06.305Z,1.90
2022-07-27T22:06:34.023Z,2.15
2022-07-27T22:09:01.594Z,2.08
2022-07-27T22:11:29.339Z,2.42
2022-07-27T22:13:56.825Z,2.03
2022-07-27T22:16:24.484Z,1.90
2022-07-27T22:18:52.334Z,2.10
2022-07-27T22:21:19.822Z,1.92
2022-07-27T22:23:49.255Z,1.90
2022-07-27T22:26:17.467Z,1.83
2022-07-27T22:28:45.007Z,1.95
2022-07-27T22:31:21.150Z,2.10
2022-07-27T22:33:51.082Z,1.62
2022-07-27T22:36:18.996Z,2.30
2022-07-27T22:38:46.537Z,1.85
2022-07-27T22:41:14.381Z,2.00
2022-07-27T22:43:41.886Z,1.95
2022-07-27T22:46:10.125Z,1.95
2022-07-27T22:48:38.412Z,1.95
2022-07-27T22:51:05.913Z,1.90
2022-07-27T22:53:33.893Z,1.85
2022-07-27T22:56:01.635Z,1.90
2022-07-27T22:58:29.151Z,1.80
2022-07-27T23:00:59.694Z,1.92
2022-07-27T23:03:27.831Z,1.60
2022-07-27T23:05:55.304Z,2.20
2022-07-27T23:08:22.825Z,1.83
2022-07-27T23:10:50.628Z,2.00
2022-07-27T23:13:19.365Z,1.80
2022-07-27T23:15:47.538Z,1.87
2022-07-27T23:18:16.818Z,2.25
2022-07-27T23:20:45.122Z,1.60
2022-07-27T23:23:16.794Z,1.80
2022-07-27T23:25:46.032Z,1.80
2022-07-27T23:28:15.220Z,1.95
2022-07-27T23:30:42.912Z,1.75
2022-07-27T23:33:10.775Z,1.58
2022-07-27T23:35:38.394Z,1.70
2022-07-27T23:38:05.976Z,1.83
2022-07-27T23:40:33.727Z,1.60
2022-07-27T23:43:01.307Z,1.75
2022-07-27T23:45:28.908Z,1.70
2022-07-27T23:47:56.658Z,1.83
2022-07-27T23:50:24.210Z,2.08
2022-07-27T23:52:51.803Z,2.15
2022-07-27T23:55:19.552Z,2.00
2022-07-27T23:57:47.335Z,1.80
